Test XHTML 1.0 Strict Page for WU-History Testing
Station Historical Data
 
Daily Summary for October 25, 2014 Units:  Both    English   Metric
« Previous Day
Next Day »
Daily Weekly Monthly Yearly Custom
  Current: High: Low: Average:
Temperature: 50.4 °F /  10.2 °C 54.9 °F /  12.7 °C 40.5 °F /  4.7 °C 48.7 °F /  9.3 °C
Dew Point: 48.4 °F /  9.1 °C 52.6 °F /  11.4 °C 40.5 °F /  4.7 °C 47.7 °F /  8.7 °C
Humidity: 93% 100% 89% 97%
Wind Speed: 4.6mph /  7.4km/h 10.4mph /  16.7km/h - 2mph /  3.2km/h
Wind Gust: 4.6mph /  7.4km/h 10.4mph /  16.7km/h - -
WindWNW - - SW
Pressure: 30.02 in /  1016.5 hPa 30.04 in /  1017.2 hPa 29.95 in /  1014.1 hPa -
Precipitation: 0.02 in /  0.51 mm      
Historical Graphs
 
 
Weather-Above Climate History
Untitled
Tabular Data for October 25, 2014
Time Temperature Dew Point Pressure Wind Wind Speed Wind Gust Humidity Rainfall Rate (Hourly)
00:02 41.9 °F /  5.5 °C 41.9 °F /  5.5 °C 29.97in /  1014.8hPa Calm     100% 0.00in /  0cm
00:07 41.9 °F /  5.5 °C 41.9 °F /  5.5 °C 29.97in /  1014.8hPa Calm     100% 0.00in /  0cm
00:12 41.7 °F /  5.4 °C 41.7 °F /  5.4 °C 29.97in /  1014.8hPa Calm     100% 0.00in /  0cm
00:17 41.7 °F /  5.4 °C 41.7 °F /  5.4 °C 29.97in /  1014.8hPa Calm     100% 0.00in /  0cm
00:22 41.9 °F /  5.5 °C 41.9 °F /  5.5 °C 29.97in /  1014.8hPa Calm     100% 0.00in /  0cm
00:27 41.5 °F /  5.3 °C 41.5 °F /  5.3 °C 29.97in /  1014.8hPa Calm     100% 0.00in /  0cm
00:32 41.4 °F /  5.2 °C 41.4 °F /  5.2 °C 29.97in /  1014.8hPa Calm     100% 0.00in /  0cm
00:37 41.4 °F /  5.2 °C 41.4 °F /  5.2 °C 29.97in /  1014.8hPa Calm     100% 0.00in /  0cm
00:42 41.7 °F /  5.4 °C 41.7 °F /  5.4 °C 29.97in /  1014.8hPa Calm     100% 0.00in /  0cm
00:47 41.7 °F /  5.4 °C 41.7 °F /  5.4 °C 29.97in /  1014.8hPa Calm     100% 0.00in /  0cm
00:52 41.7 °F /  5.4 °C 41.7 °F /  5.4 °C 29.97in /  1014.8hPa Calm     100% 0.00in /  0cm
00:57 41.7 °F /  5.4 °C 41.7 °F /  5.4 °C 29.97in /  1014.8hPa Calm     100% 0.00in /  0cm
01:02 41.9 °F /  5.5 °C 41.9 °F /  5.5 °C 29.97in /  1014.8hPa Calm     100% 0.00in /  0cm
01:07 42.1 °F /  5.6 °C 42.1 °F /  5.6 °C 29.97in /  1014.8hPa Calm     100% 0.00in /  0cm
01:12 42.4 °F /  5.8 °C 42.4 °F /  5.8 °C 29.97in /  1014.8hPa Calm     100% 0.00in /  0cm
01:17 42.8 °F /  6 °C 42.8 °F /  6 °C 29.97in /  1014.8hPa Calm     100% 0.00in /  0cm
01:22 43.0 °F /  6.1 °C 43.0 °F /  6.1 °C 29.97in /  1014.8hPa Calm     100% 0.00in /  0cm
01:27 43.3 °F /  6.3 °C 43.3 °F /  6.3 °C 29.97in /  1014.8hPa Calm     100% 0.00in /  0cm
01:32 43.5 °F /  6.4 °C 43.5 °F /  6.4 °C 29.97in /  1014.8hPa Calm     100% 0.00in /  0cm
01:37 43.7 °F /  6.5 °C 43.7 °F /  6.5 °C 29.96in /  1014.4hPa Calm     100% 0.00in /  0cm
01:42 43.7 °F /  6.5 °C 43.7 °F /  6.5 °C 29.97in /  1014.8hPa Calm     100% 0.00in /  0cm
01:47 43.7 °F /  6.5 °C 43.7 °F /  6.5 °C 29.97in /  1014.8hPa Calm     100% 0.00in /  0cm
01:52 43.7 °F /  6.5 °C 43.7 °F /  6.5 °C 29.96in /  1014.4hPa Calm     100% 0.00in /  0cm
01:57 43.7 °F /  6.5 °C 43.7 °F /  6.5 °C 29.96in /  1014.4hPa Calm     100% 0.00in /  0cm
02:02 44.1 °F /  6.7 °C 44.1 °F /  6.7 °C 29.97in /  1014.8hPa Calm     100% 0.00in /  0cm
02:07 44.2 °F /  6.8 °C 44.2 °F /  6.8 °C 29.96in /  1014.4hPa Calm     100% 0.00in /  0cm
02:12 44.1 °F /  6.7 °C 44.1 °F /  6.7 °C 29.96in /  1014.4hPa Calm     100% 0.00in /  0cm
02:17 43.7 °F /  6.5 °C 43.7 °F /  6.5 °C 29.96in /  1014.4hPa Calm     100% 0.00in /  0cm
02:22 43.3 °F /  6.3 °C 43.1 °F /  6.2 °C 29.95in /  1014.1hPa Calm     99% 0.00in /  0cm
02:27 42.8 °F /  6 °C 42.8 °F /  6 °C 29.96in /  1014.4hPa Calm     100% 0.00in /  0cm
02:32 42.6 °F /  5.9 °C 42.6 °F /  5.9 °C 29.96in /  1014.4hPa Calm     100% 0.00in /  0cm
02:37 42.3 °F /  5.7 °C 42.3 °F /  5.7 °C 29.96in /  1014.4hPa Calm     100% 0.00in /  0cm
02:42 41.9 °F /  5.5 °C 41.9 °F /  5.5 °C 29.96in /  1014.4hPa Calm     100% 0.00in /  0cm
02:47 41.7 °F /  5.4 °C 41.7 °F /  5.4 °C 29.96in /  1014.4hPa Calm     100% 0.00in /  0cm
02:52 41.7 °F /  5.4 °C 41.7 °F /  5.4 °C 29.95in /  1014.1hPa Calm     100% 0.00in /  0cm
02:57 41.5 °F /  5.3 °C 41.5 °F /  5.3 °C 29.96in /  1014.4hPa Calm     100% 0.00in /  0cm
03:02 41.2 °F /  5.1 °C 41.2 °F /  5.1 °C 29.96in /  1014.4hPa Calm     100% 0.00in /  0cm
03:07 41.2 °F /  5.1 °C 41.2 °F /  5.1 °C 29.96in /  1014.4hPa Calm     100% 0.00in /  0cm
03:12 41.2 °F /  5.1 °C 41.2 °F /  5.1 °C 29.96in /  1014.4hPa Calm     100% 0.00in /  0cm
03:17 41.2 °F /  5.1 °C 41.2 °F /  5.1 °C 29.96in /  1014.4hPa Calm     100% 0.00in /  0cm
03:22 41.2 °F /  5.1 °C 41.2 °F /  5.1 °C 29.95in /  1014.1hPa Calm     100% 0.00in /  0cm
03:27 41.2 °F /  5.1 °C 41.2 °F /  5.1 °C 29.95in /  1014.1hPa Calm     100% 0.00in /  0cm
03:32 41.0 °F /  5 °C 41.0 °F /  5 °C 29.95in /  1014.1hPa Calm     100% 0.00in /  0cm
03:37 41.0 °F /  5 °C 41.0 °F /  5 °C 29.96in /  1014.4hPa Calm     100% 0.00in /  0cm
03:42 40.8 °F /  4.9 °C 40.8 °F /  4.9 °C 29.95in /  1014.1hPa Calm     100% 0.00in /  0cm
03:47 40.8 °F /  4.9 °C 40.8 °F /  4.9 °C 29.96in /  1014.4hPa Calm     100% 0.00in /  0cm
03:52 40.8 °F /  4.9 °C 40.8 °F /  4.9 °C 29.95in /  1014.1hPa Calm     100% 0.00in /  0cm
03:57 40.6 °F /  4.8 °C 40.6 °F /  4.8 °C 29.95in /  1014.1hPa Calm     100% 0.00in /  0cm
04:02 40.5 °F /  4.7 °C 40.5 °F /  4.7 °C 29.95in /  1014.1hPa Calm     100% 0.00in /  0cm
04:07 40.6 °F /  4.8 °C 40.6 °F /  4.8 °C 29.95in /  1014.1hPa Calm     100% 0.00in /  0cm
04:12 40.6 °F /  4.8 °C 40.6 °F /  4.8 °C 29.95in /  1014.1hPa Calm     100% 0.00in /  0cm
04:17 40.5 °F /  4.7 °C 40.5 °F /  4.7 °C 29.95in /  1014.1hPa NW 0.6mph /  1km/h   100% 0.00in /  0cm
04:22 40.5 °F /  4.7 °C 40.5 °F /  4.7 °C 29.95in /  1014.1hPa Calm     100% 0.00in /  0cm
04:27 40.6 °F /  4.8 °C 40.6 °F /  4.8 °C 29.95in /  1014.1hPa Calm   0.2mph /  0.3km/h 100% 0.00in /  0cm
04:32 40.6 °F /  4.8 °C 40.6 °F /  4.8 °C 29.95in /  1014.1hPa Calm     100% 0.00in /  0cm
04:37 40.8 °F /  4.9 °C 40.8 °F /  4.9 °C 29.95in /  1014.1hPa Calm   0.4mph /  0.6km/h 100% 0.00in /  0cm
04:42 41.4 °F /  5.2 °C 41.4 °F /  5.2 °C 29.96in /  1014.4hPa Calm   0.6mph /  1km/h 100% 0.00in /  0cm
04:47 41.9 °F /  5.5 °C 41.9 °F /  5.5 °C 29.95in /  1014.1hPa SSW 2.3mph /  3.7km/h   100% 0.00in /  0cm
04:52 42.6 °F /  5.9 °C 42.6 °F /  5.9 °C 29.96in /  1014.4hPa Calm     100% 0.00in /  0cm
04:57 42.8 °F /  6 °C 42.8 °F /  6 °C 29.96in /  1014.4hPa Calm     100% 0.00in /  0cm
05:02 43.3 °F /  6.3 °C 43.3 °F /  6.3 °C 29.97in /  1014.8hPa Calm     100% 0.00in /  0cm
05:07 43.5 °F /  6.4 °C 43.5 °F /  6.4 °C 29.97in /  1014.8hPa Calm   0.1mph /  0.2km/h 100% 0.00in /  0cm
05:12 44.2 °F /  6.8 °C 44.2 °F /  6.8 °C 29.96in /  1014.4hPa Calm     100% 0.00in /  0cm
05:17 44.2 °F /  6.8 °C 44.2 °F /  6.8 °C 29.96in /  1014.4hPa Calm     100% 0.00in /  0cm
05:22 44.6 °F /  7 °C 44.6 °F /  7 °C 29.96in /  1014.4hPa WNW 3.5mph /  5.6km/h 3.5mph /  5.6km/h 100% 0.00in /  0cm
05:27 45.0 °F /  7.2 °C 45.0 °F /  7.2 °C 29.96in /  1014.4hPa Calm     100% 0.00in /  0cm
05:33 44.8 °F /  7.1 °C 44.8 °F /  7.1 °C 29.97in /  1014.8hPa Calm   0.1mph /  0.2km/h 100% 0.00in /  0cm
05:38 45.0 °F /  7.2 °C 45.0 °F /  7.2 °C 29.97in /  1014.8hPa WSW 4.6mph /  7.4km/h 4.6mph /  7.4km/h 100% 0.00in /  0cm
05:43 45.0 °F /  7.2 °C 45.0 °F /  7.2 °C 29.97in /  1014.8hPa Calm     100% 0.00in /  0cm
05:48 45.0 °F /  7.2 °C 45.0 °F /  7.2 °C 29.97in /  1014.8hPa NW 4.6mph /  7.4km/h 4.6mph /  7.4km/h 100% 0.00in /  0cm
05:53 45.3 °F /  7.4 °C 45.3 °F /  7.4 °C 29.97in /  1014.8hPa Calm     100% 0.00in /  0cm
05:58 45.5 °F /  7.5 °C 45.5 °F /  7.5 °C 29.97in /  1014.8hPa Calm   0.9mph /  1.4km/h 100% 0.00in /  0cm
06:03 45.3 °F /  7.4 °C 45.3 °F /  7.4 °C 29.97in /  1014.8hPa Calm     100% 0.00in /  0cm
06:08 45.0 °F /  7.2 °C 45.0 °F /  7.2 °C 29.97in /  1014.8hPa West 1.2mph /  1.9km/h   100% 0.00in /  0cm
06:13 44.6 °F /  7 °C 44.6 °F /  7 °C 29.97in /  1014.8hPa Calm     100% 0.00in /  0cm
06:18 44.2 °F /  6.8 °C 44.2 °F /  6.8 °C 29.97in /  1014.8hPa Calm     100% 0.00in /  0cm
06:23 44.2 °F /  6.8 °C 44.2 °F /  6.8 °C 29.97in /  1014.8hPa Calm     100% 0.00in /  0cm
06:28 44.2 °F /  6.8 °C 44.2 °F /  6.8 °C 29.97in /  1014.8hPa WSW 1.2mph /  1.9km/h   100% 0.00in /  0cm
06:33 44.4 °F /  6.9 °C 44.4 °F /  6.9 °C 29.97in /  1014.8hPa Calm     100% 0.00in /  0cm
06:38 44.6 °F /  7 °C 44.6 °F /  7 °C 29.97in /  1014.8hPa Calm     100% 0.00in /  0cm
06:43 45.0 °F /  7.2 °C 45.0 °F /  7.2 °C 29.97in /  1014.8hPa NW 1.2mph /  1.9km/h   100% 0.00in /  0cm
06:48 45.3 °F /  7.4 °C 45.3 °F /  7.4 °C 29.97in /  1014.8hPa SSE 3.5mph /  5.6km/h   100% 0.00in /  0cm
06:53 45.5 °F /  7.5 °C 45.5 °F /  7.5 °C 29.97in /  1014.8hPa WNW 1.2mph /  1.9km/h   100% 0.00in /  0cm
06:58 45.5 °F /  7.5 °C 45.5 °F /  7.5 °C 29.97in /  1014.8hPa Calm     100% 0.00in /  0cm
07:03 45.3 °F /  7.4 °C 45.3 °F /  7.4 °C 29.97in /  1014.8hPa Calm     100% 0.00in /  0cm
07:08 45.5 °F /  7.5 °C 45.5 °F /  7.5 °C 29.97in /  1014.8hPa Calm   0.1mph /  0.2km/h 100% 0.00in /  0cm
07:13 45.5 °F /  7.5 °C 45.5 °F /  7.5 °C 29.97in /  1014.8hPa Calm   0.1mph /  0.2km/h 100% 0.00in /  0cm
07:18 45.1 °F /  7.3 °C 45.1 °F /  7.3 °C 29.96in /  1014.4hPa South 3.9mph /  6.3km/h 3.9mph /  6.3km/h 100% 0.00in /  0cm
07:23 45.0 °F /  7.2 °C 45.0 °F /  7.2 °C 29.97in /  1014.8hPa Calm     100% 0.00in /  0cm
07:28 44.8 °F /  7.1 °C 44.8 °F /  7.1 °C 29.97in /  1014.8hPa Calm     100% 0.00in /  0cm
07:33 44.4 °F /  6.9 °C 44.4 °F /  6.9 °C 29.97in /  1014.8hPa Calm     100% 0.00in /  0cm
07:38 44.1 °F /  6.7 °C 44.1 °F /  6.7 °C 29.97in /  1014.8hPa Calm     100% 0.00in /  0cm
07:43 44.1 °F /  6.7 °C 44.1 °F /  6.7 °C 29.97in /  1014.8hPa Calm     100% 0.00in /  0cm
07:48 44.6 °F /  7 °C 44.6 °F /  7 °C 29.98in /  1015.1hPa Calm     100% 0.00in /  0cm
07:53 45.3 °F /  7.4 °C 45.3 °F /  7.4 °C 29.98in /  1015.1hPa SW 1.2mph /  1.9km/h   100% 0.00in /  0cm
07:58 45.5 °F /  7.5 °C 45.5 °F /  7.5 °C 29.97in /  1014.8hPa Calm     100% 0.00in /  0cm
08:03 45.1 °F /  7.3 °C 45.1 °F /  7.3 °C 29.97in /  1014.8hPa Calm     100% 0.00in /  0cm
08:08 45.0 °F /  7.2 °C 45.0 °F /  7.2 °C 29.98in /  1015.1hPa SSW 1.2mph /  1.9km/h   100% 0.00in /  0cm
08:13 45.1 °F /  7.3 °C 45.1 °F /  7.3 °C 29.98in /  1015.1hPa Calm     100% 0.00in /  0cm
08:18 45.3 °F /  7.4 °C 45.3 °F /  7.4 °C 29.98in /  1015.1hPa SW 1.4mph /  2.3km/h   100% 0.00in /  0cm
08:23 45.5 °F /  7.5 °C 45.5 °F /  7.5 °C 29.99in /  1015.5hPa West 1.2mph /  1.9km/h 1.2mph /  1.9km/h 100% 0.00in /  0cm
08:28 45.7 °F /  7.6 °C 45.7 °F /  7.6 °C 29.99in /  1015.5hPa SSW 0.8mph /  1.3km/h 0.8mph /  1.3km/h 100% 0.00in /  0cm
08:33 46.2 °F /  7.9 °C 46.2 °F /  7.9 °C 29.99in /  1015.5hPa WSW 1.2mph /  1.9km/h   100% 0.00in /  0cm
08:38 46.4 °F /  8 °C 46.4 °F /  8 °C 29.98in /  1015.1hPa WSW 1.2mph /  1.9km/h 1.2mph /  1.9km/h 100% 0.00in /  0cm
08:43 46.8 °F /  8.2 °C 46.8 °F /  8.2 °C 29.99in /  1015.5hPa SSW 1.2mph /  1.9km/h   100% 0.00in /  0cm
08:48 46.9 °F /  8.3 °C 46.9 °F /  8.3 °C 29.99in /  1015.5hPa Calm     100% 0.00in /  0cm
08:53 47.1 °F /  8.4 °C 47.1 °F /  8.4 °C 29.98in /  1015.1hPa SSW 2.3mph /  3.7km/h 2.3mph /  3.7km/h 100% 0.00in /  0cm
08:58 47.3 °F /  8.5 °C 47.3 °F /  8.5 °C 29.98in /  1015.1hPa SE 1.2mph /  1.9km/h   100% 0.00in /  0cm
09:03 47.5 °F /  8.6 °C 47.5 °F /  8.6 °C 29.99in /  1015.5hPa SW 1.2mph /  1.9km/h 1.2mph /  1.9km/h 100% 0.00in /  0cm
09:08 47.7 °F /  8.7 °C 47.7 °F /  8.7 °C 29.99in /  1015.5hPa Calm     100% 0.00in /  0cm
09:13 47.7 °F /  8.7 °C 47.7 °F /  8.7 °C 29.99in /  1015.5hPa SW 1.2mph /  1.9km/h 1.2mph /  1.9km/h 100% 0.00in /  0cm
09:18 48.0 °F /  8.9 °C 48.0 °F /  8.9 °C 29.99in /  1015.5hPa NNW 1.2mph /  1.9km/h   100% 0.00in /  0cm
09:23 48.0 °F /  8.9 °C 48.0 °F /  8.9 °C 29.99in /  1015.5hPa SW 2.3mph /  3.7km/h 2.3mph /  3.7km/h 100% 0.00in /  0cm
09:28 48.4 °F /  9.1 °C 48.4 °F /  9.1 °C 29.99in /  1015.5hPa Calm     100% 0.00in /  0cm
09:33 48.6 °F /  9.2 °C 48.6 °F /  9.2 °C 29.99in /  1015.5hPa ESE 4.6mph /  7.4km/h 4.6mph /  7.4km/h 100% 0.00in /  0cm
09:38 48.7 °F /  9.3 °C 48.7 °F /  9.3 °C 29.99in /  1015.5hPa Calm     100% 0.00in /  0cm
09:43 48.7 °F /  9.3 °C 48.7 °F /  9.3 °C 29.99in /  1015.5hPa WSW 3.5mph /  5.6km/h   100% 0.00in /  0cm
09:48 48.7 °F /  9.3 °C 48.7 °F /  9.3 °C 29.99in /  1015.5hPa SW 2.3mph /  3.7km/h   100% 0.00in /  0cm
09:53 48.7 °F /  9.3 °C 48.7 °F /  9.3 °C 29.99in /  1015.5hPa ESE 2.3mph /  3.7km/h 2.3mph /  3.7km/h 100% 0.00in /  0cm
09:58 48.7 °F /  9.3 °C 48.7 °F /  9.3 °C 29.99in /  1015.5hPa SSW 1.2mph /  1.9km/h 1.2mph /  1.9km/h 100% 0.00in /  0cm
10:03 48.9 °F /  9.4 °C 48.9 °F /  9.4 °C 29.99in /  1015.5hPa WNW 2.5mph /  4km/h 2.5mph /  4km/h 100% 0.00in /  0cm
10:08 49.5 °F /  9.7 °C 49.5 °F /  9.7 °C 29.99in /  1015.5hPa SSW 2.3mph /  3.7km/h 2.3mph /  3.7km/h 100% 0.00in /  0cm
10:13 49.8 °F /  9.9 °C 49.6 °F /  9.8 °C 29.99in /  1015.5hPa SSE 4.6mph /  7.4km/h 4.6mph /  7.4km/h 99% 0.00in /  0cm
10:18 50.0 °F /  10 °C 50.0 °F /  10 °C 29.99in /  1015.5hPa Calm     100% 0.00in /  0cm
10:23 50.0 °F /  10 °C 50.0 °F /  10 °C 29.99in /  1015.5hPa South 4.6mph /  7.4km/h 4.6mph /  7.4km/h 100% 0.00in /  0cm
10:28 49.8 °F /  9.9 °C 49.8 °F /  9.9 °C 29.99in /  1015.5hPa East 1.2mph /  1.9km/h 1.2mph /  1.9km/h 100% 0.00in /  0cm
10:33 49.8 °F /  9.9 °C 49.8 °F /  9.9 °C 29.99in /  1015.5hPa SSW 3.5mph /  5.6km/h 3.5mph /  5.6km/h 100% 0.00in /  0cm
10:38 50.0 °F /  10 °C 49.7 °F /  9.8 °C 29.99in /  1015.5hPa SSW 3.5mph /  5.6km/h 3.5mph /  5.6km/h 99% 0.00in /  0cm
10:43 50.2 °F /  10.1 °C 49.9 °F /  9.9 °C 29.99in /  1015.5hPa SSE 1.6mph /  2.6km/h 1.6mph /  2.6km/h 99% 0.00in /  0cm
10:48 50.4 °F /  10.2 °C 50.1 °F /  10.1 °C 29.99in /  1015.5hPa West 1.2mph /  1.9km/h   99% 0.00in /  0cm
10:53 50.7 °F /  10.4 °C 50.2 °F /  10.1 °C 29.99in /  1015.5hPa West 4.4mph /  7.1km/h 4.4mph /  7.1km/h 98% 0.00in /  0cm
10:58 50.9 °F /  10.5 °C 50.4 °F /  10.2 °C 29.99in /  1015.5hPa South 2.3mph /  3.7km/h   98% 0.00in /  0cm
11:03 50.9 °F /  10.5 °C 50.4 °F /  10.2 °C 29.99in /  1015.5hPa WSW 1.2mph /  1.9km/h 1.2mph /  1.9km/h 98% 0.00in /  0cm
11:08 50.9 °F /  10.5 °C 50.1 °F /  10.1 °C 29.99in /  1015.5hPa South 3.5mph /  5.6km/h 3.5mph /  5.6km/h 97% 0.00in /  0cm
11:13 50.9 °F /  10.5 °C 50.1 °F /  10.1 °C 29.99in /  1015.5hPa South 2.3mph /  3.7km/h 2.3mph /  3.7km/h 97% 0.00in /  0cm
11:18 50.9 °F /  10.5 °C 50.1 °F /  10.1 °C 29.99in /  1015.5hPa ENE 2.3mph /  3.7km/h 2.3mph /  3.7km/h 97% 0.00in /  0cm
11:23 50.9 °F /  10.5 °C 50.1 °F /  10.1 °C 29.99in /  1015.5hPa West 5.8mph /  9.3km/h 5.8mph /  9.3km/h 97% 0.00in /  0cm
11:28 51.6 °F /  10.9 °C 50.5 °F /  10.3 °C 29.99in /  1015.5hPa WSW 8.1mph /  13km/h 8.1mph /  13km/h 96% 0.00in /  0cm
11:33 52.2 °F /  11.2 °C 51.1 °F /  10.6 °C 29.99in /  1015.5hPa ENE 1.1mph /  1.8km/h 1.1mph /  1.8km/h 96% 0.00in /  0cm
11:38 52.7 °F /  11.5 °C 51.3 °F /  10.7 °C 29.99in /  1015.5hPa SW 8.1mph /  13km/h 8.1mph /  13km/h 95% 0.00in /  0cm
11:43 53.1 °F /  11.7 °C 51.4 °F /  10.8 °C 29.99in /  1015.5hPa West 2.3mph /  3.7km/h 2.3mph /  3.7km/h 94% 0.00in /  0cm
11:48 53.2 °F /  11.8 °C 51.6 °F /  10.9 °C 29.99in /  1015.5hPa WNW 3.5mph /  5.6km/h 3.5mph /  5.6km/h 94% 0.00in /  0cm
11:53 53.6 °F /  12 °C 51.6 °F /  10.9 °C 29.99in /  1015.5hPa SW 5.8mph /  9.3km/h 5.8mph /  9.3km/h 93% 0.00in /  0cm
11:58 53.6 °F /  12 °C 51.6 °F /  10.9 °C 30.00in /  1015.8hPa South 1.2mph /  1.9km/h   93% 0.00in /  0cm
12:03 53.1 °F /  11.7 °C 51.1 °F /  10.6 °C 29.99in /  1015.5hPa SSE 1.2mph /  1.9km/h 1.2mph /  1.9km/h 93% 0.00in /  0cm
12:08 53.1 °F /  11.7 °C 50.8 °F /  10.4 °C 30.00in /  1015.8hPa SE 6.9mph /  11.1km/h 6.9mph /  11.1km/h 92% 0.00in /  0cm
12:13 53.1 °F /  11.7 °C 51.1 °F /  10.6 °C 30.00in /  1015.8hPa SSE 4.6mph /  7.4km/h 4.6mph /  7.4km/h 93% 0.00in /  0cm
12:18 53.1 °F /  11.7 °C 50.5 °F /  10.3 °C 29.99in /  1015.5hPa SE 2.3mph /  3.7km/h 2.3mph /  3.7km/h 91% 0.00in /  0cm
12:23 53.2 °F /  11.8 °C 51.0 °F /  10.6 °C 29.99in /  1015.5hPa SW 4.6mph /  7.4km/h 4.6mph /  7.4km/h 92% 0.00in /  0cm
12:28 53.2 °F /  11.8 °C 50.7 °F /  10.4 °C 29.99in /  1015.5hPa SW 3.5mph /  5.6km/h 3.5mph /  5.6km/h 91% 0.00in /  0cm
12:33 53.4 °F /  11.9 °C 51.2 °F /  10.7 °C 29.99in /  1015.5hPa SSE 4.6mph /  7.4km/h 4.6mph /  7.4km/h 92% 0.00in /  0cm
12:38 53.6 °F /  12 °C 51.0 °F /  10.6 °C 29.99in /  1015.5hPa SSE 2.3mph /  3.7km/h 2.3mph /  3.7km/h 91% 0.00in /  0cm
12:43 53.4 °F /  11.9 °C 51.2 °F /  10.7 °C 29.99in /  1015.5hPa SSE 2.3mph /  3.7km/h 2.3mph /  3.7km/h 92% 0.00in /  0cm
12:48 53.2 °F /  11.8 °C 50.7 °F /  10.4 °C 29.99in /  1015.5hPa SW 2.3mph /  3.7km/h 2.3mph /  3.7km/h 91% 0.00in /  0cm
12:53 52.9 °F /  11.6 °C 50.3 °F /  10.2 °C 29.99in /  1015.5hPa WSW 2.9mph /  4.7km/h 2.9mph /  4.7km/h 91% 0.00in /  0cm
12:58 53.1 °F /  11.7 °C 51.1 °F /  10.6 °C 29.99in /  1015.5hPa Calm     93% 0.00in /  0cm
13:03 53.2 °F /  11.8 °C 51.3 °F /  10.7 °C 29.99in /  1015.5hPa South 2.7mph /  4.3km/h 2.7mph /  4.3km/h 93% 0.00in /  0cm
13:08 53.6 °F /  12 °C 51.3 °F /  10.7 °C 29.99in /  1015.5hPa Calm     92% 0.00in /  0cm
13:13 53.8 °F /  12.1 °C 51.5 °F /  10.8 °C 29.98in /  1015.1hPa WSW 1.2mph /  1.9km/h 1.4mph /  2.3km/h 92% 0.00in /  0cm
13:18 53.6 °F /  12 °C 51.3 °F /  10.7 °C 29.98in /  1015.1hPa WNW 4.6mph /  7.4km/h 4.6mph /  7.4km/h 92% 0.00in /  0cm
13:23 53.8 °F /  12.1 °C 51.5 °F /  10.8 °C 29.99in /  1015.5hPa SW 4.6mph /  7.4km/h   92% 0.00in /  0cm
13:28 54.5 °F /  12.5 °C 51.9 °F /  11.1 °C 29.99in /  1015.5hPa NNW 2.3mph /  3.7km/h   91% 0.00in /  0cm
13:33 54.9 °F /  12.7 °C 52.0 °F /  11.1 °C 29.99in /  1015.5hPa East 2.8mph /  4.5km/h 2.8mph /  4.5km/h 90% 0.00in /  0cm
13:38 54.7 °F /  12.6 °C 51.8 °F /  11 °C 29.99in /  1015.5hPa SSW 3.5mph /  5.6km/h 3.5mph /  5.6km/h 90% 0.00in /  0cm
13:43 54.5 °F /  12.5 °C 51.6 °F /  10.9 °C 29.99in /  1015.5hPa South 3.5mph /  5.6km/h 3.5mph /  5.6km/h 90% 0.00in /  0cm
13:48 54.3 °F /  12.4 °C 51.4 °F /  10.8 °C 29.99in /  1015.5hPa Calm   2.1mph /  3.4km/h 90% 0.00in /  0cm
13:53 54.0 °F /  12.2 °C 51.1 °F /  10.6 °C 29.99in /  1015.5hPa Calm     90% 0.00in /  0cm
13:58 53.8 °F /  12.1 °C 51.5 °F /  10.8 °C 29.99in /  1015.5hPa WSW 1.2mph /  1.9km/h   92% 0.00in /  0cm
14:03 53.6 °F /  12 °C 51.3 °F /  10.7 °C 29.99in /  1015.5hPa West 3.5mph /  5.6km/h 3.5mph /  5.6km/h 92% 0.00in /  0cm
14:08 53.6 °F /  12 °C 51.3 °F /  10.7 °C 29.99in /  1015.5hPa WSW 3.5mph /  5.6km/h   92% 0.00in /  0cm
14:13 53.6 °F /  12 °C 51.3 °F /  10.7 °C 29.99in /  1015.5hPa WNW 5.8mph /  9.3km/h 5.8mph /  9.3km/h 92% 0.00in /  0cm
14:18 53.8 °F /  12.1 °C 51.8 °F /  11 °C 29.99in /  1015.5hPa West 3.5mph /  5.6km/h 3.5mph /  5.6km/h 93% 0.00in /  0cm
14:23 54.0 °F /  12.2 °C 52.0 °F /  11.1 °C 29.99in /  1015.5hPa West 1.3mph /  2.1km/h 1.3mph /  2.1km/h 93% 0.00in /  0cm
14:28 54.1 °F /  12.3 °C 52.5 °F /  11.4 °C 29.98in /  1015.1hPa West 4.6mph /  7.4km/h 4.6mph /  7.4km/h 94% 0.00in /  0cm
14:33 54.1 °F /  12.3 °C 52.5 °F /  11.4 °C 29.98in /  1015.1hPa Calm     94% 0.00in /  0cm
14:38 54.1 °F /  12.3 °C 52.5 °F /  11.4 °C 29.98in /  1015.1hPa NNE 1.2mph /  1.9km/h 1.2mph /  1.9km/h 94% 0.00in /  0cm
14:43 54.1 °F /  12.3 °C 52.2 °F /  11.2 °C 29.98in /  1015.1hPa NW 1.2mph /  1.9km/h 1.5mph /  2.4km/h 93% 0.00in /  0cm
14:48 54.0 °F /  12.2 °C 52.3 °F /  11.3 °C 29.98in /  1015.1hPa WNW 4.6mph /  7.4km/h 4.6mph /  7.4km/h 94% 0.00in /  0cm
14:53 53.6 °F /  12 °C 51.9 °F /  11.1 °C 29.98in /  1015.1hPa South 4.6mph /  7.4km/h 4.6mph /  7.4km/h 94% 0.00in /  0cm
14:58 53.6 °F /  12 °C 51.9 °F /  11.1 °C 29.99in /  1015.5hPa NNW 4.8mph /  7.7km/h 4.8mph /  7.7km/h 94% 0.00in /  0cm
15:03 53.6 °F /  12 °C 52.2 °F /  11.2 °C 29.98in /  1015.1hPa West 4.6mph /  7.4km/h 4.6mph /  7.4km/h 95% 0.00in /  0cm
15:08 53.4 °F /  11.9 °C 52.0 °F /  11.1 °C 29.98in /  1015.1hPa Calm     95% 0.01in /  0.25cm
15:13 53.4 °F /  11.9 °C 52.3 °F /  11.3 °C 29.99in /  1015.5hPa West 3.5mph /  5.6km/h 3.5mph /  5.6km/h 96% 0.01in /  0.25cm
15:18 53.4 °F /  11.9 °C 52.6 °F /  11.4 °C 29.98in /  1015.1hPa South 3.2mph /  5.1km/h 3.2mph /  5.1km/h 97% 0.02in /  0.51cm
15:23 53.4 °F /  11.9 °C 52.3 °F /  11.3 °C 29.98in /  1015.1hPa WNW 5.8mph /  9.3km/h 5.8mph /  9.3km/h 96% 0.02in /  0.51cm
15:28 53.2 °F /  11.8 °C 52.1 °F /  11.2 °C 29.99in /  1015.5hPa West 3.5mph /  5.6km/h 3.5mph /  5.6km/h 96% 0.02in /  0.51cm
15:33 53.2 °F /  11.8 °C 52.1 °F /  11.2 °C 29.98in /  1015.1hPa West 5.8mph /  9.3km/h 5.8mph /  9.3km/h 96% 0.02in /  0.51cm
15:38 53.1 °F /  11.7 °C 52.0 °F /  11.1 °C 29.98in /  1015.1hPa NW 10.4mph /  16.7km/h 10.4mph /  16.7km/h 96% 0.02in /  0.51cm
15:43 52.9 °F /  11.6 °C 51.8 °F /  11 °C 29.98in /  1015.1hPa NNW 6.9mph /  11.1km/h 6.9mph /  11.1km/h 96% 0.02in /  0.51cm
15:48 52.7 °F /  11.5 °C 51.9 °F /  11.1 °C 29.98in /  1015.1hPa WSW 6.9mph /  11.1km/h 6.9mph /  11.1km/h 97% 0.02in /  0.51cm
15:53 52.7 °F /  11.5 °C 51.9 °F /  11.1 °C 29.98in /  1015.1hPa Calm   0.1mph /  0.2km/h 97% 0.02in /  0.51cm
15:58 52.7 °F /  11.5 °C 51.9 °F /  11.1 °C 29.98in /  1015.1hPa West 4.6mph /  7.4km/h 4.6mph /  7.4km/h 97% 0.02in /  0.51cm
16:03 52.7 °F /  11.5 °C 51.9 °F /  11.1 °C 29.98in /  1015.1hPa West 3.5mph /  5.6km/h 3.5mph /  5.6km/h 97% 0.02in /  0.51cm
16:08 52.7 °F /  11.5 °C 51.9 °F /  11.1 °C 29.98in /  1015.1hPa SSE 5.8mph /  9.3km/h 5.8mph /  9.3km/h 97% 0.01in /  0.25cm
16:13 52.7 °F /  11.5 °C 51.9 °F /  11.1 °C 29.99in /  1015.5hPa WNW 4.6mph /  7.4km/h 4.6mph /  7.4km/h 97% 0.01in /  0.25cm
16:18 53.1 °F /  11.7 °C 51.7 °F /  10.9 °C 29.99in /  1015.5hPa WSW 3.5mph /  5.6km/h 3.5mph /  5.6km/h 95% 0.00in /  0cm
16:23 53.1 °F /  11.7 °C 52.0 °F /  11.1 °C 29.99in /  1015.5hPa WNW 4.6mph /  7.4km/h 4.6mph /  7.4km/h 96% 0.00in /  0cm
16:28 53.2 °F /  11.8 °C 51.8 °F /  11 °C 29.99in /  1015.5hPa West 4.6mph /  7.4km/h 4.6mph /  7.4km/h 95% 0.00in /  0cm
16:33 53.4 °F /  11.9 °C 52.0 °F /  11.1 °C 29.99in /  1015.5hPa West 4.6mph /  7.4km/h 4.6mph /  7.4km/h 95% 0.00in /  0cm
16:38 53.2 °F /  11.8 °C 51.8 °F /  11 °C 29.99in /  1015.5hPa West 2.3mph /  3.7km/h 2.3mph /  3.7km/h 95% 0.00in /  0cm
16:43 53.4 °F /  11.9 °C 51.7 °F /  10.9 °C 29.99in /  1015.5hPa WNW 1.9mph /  3.1km/h 1.9mph /  3.1km/h 94% 0.00in /  0cm
16:48 53.4 °F /  11.9 °C 51.7 °F /  10.9 °C 29.99in /  1015.5hPa West 4.6mph /  7.4km/h 4.6mph /  7.4km/h 94% 0.00in /  0cm
16:53 53.4 °F /  11.9 °C 51.4 °F /  10.8 °C 29.99in /  1015.5hPa Calm     93% 0.00in /  0cm
16:58 53.4 °F /  11.9 °C 51.2 °F /  10.7 °C 30.00in /  1015.8hPa West 5.8mph /  9.3km/h 5.8mph /  9.3km/h 92% 0.00in /  0cm
17:03 53.4 °F /  11.9 °C 51.4 °F /  10.8 °C 30.00in /  1015.8hPa NNE 10.4mph /  16.7km/h 10.4mph /  16.7km/h 93% 0.00in /  0cm
17:08 53.6 °F /  12 °C 51.3 °F /  10.7 °C 30.00in /  1015.8hPa SE 5.8mph /  9.3km/h 5.8mph /  9.3km/h 92% 0.00in /  0cm
17:13 53.4 °F /  11.9 °C 50.9 °F /  10.5 °C 30.00in /  1015.8hPa ESE 4.6mph /  7.4km/h 4.6mph /  7.4km/h 91% 0.00in /  0cm
17:19 53.4 °F /  11.9 °C 50.6 °F /  10.3 °C 29.99in /  1015.5hPa West 6.9mph /  11.1km/h 6.9mph /  11.1km/h 90% 0.00in /  0cm
17:24 53.4 °F /  11.9 °C 50.6 °F /  10.3 °C 29.99in /  1015.5hPa NW 3.5mph /  5.6km/h 3.5mph /  5.6km/h 90% 0.00in /  0cm
17:29 53.4 °F /  11.9 °C 50.3 °F /  10.2 °C 29.99in /  1015.5hPa West 6.9mph /  11.1km/h 6.9mph /  11.1km/h 89% 0.00in /  0cm
17:34 53.1 °F /  11.7 °C 50.2 °F /  10.1 °C 29.99in /  1015.5hPa NW 4.6mph /  7.4km/h 4.6mph /  7.4km/h 90% 0.00in /  0cm
17:39 52.7 °F /  11.5 °C 50.1 °F /  10.1 °C 29.99in /  1015.5hPa WNW 5.8mph /  9.3km/h 5.8mph /  9.3km/h 91% 0.00in /  0cm
17:44 52.2 °F /  11.2 °C 49.6 °F /  9.8 °C 29.99in /  1015.5hPa NW 1.2mph /  1.9km/h 1.2mph /  1.9km/h 91% 0.00in /  0cm
17:49 51.8 °F /  11 °C 49.5 °F /  9.7 °C 30.00in /  1015.8hPa WNW 2.3mph /  3.7km/h 2.3mph /  3.7km/h 92% 0.00in /  0cm
17:54 51.8 °F /  11 °C 49.5 °F /  9.7 °C 30.00in /  1015.8hPa West 3.2mph /  5.1km/h 3.2mph /  5.1km/h 92% 0.00in /  0cm
17:59 52.0 °F /  11.1 °C 49.7 °F /  9.8 °C 30.00in /  1015.8hPa SW 1.2mph /  1.9km/h   92% 0.00in /  0cm
18:04 52.2 °F /  11.2 °C 50.2 °F /  10.1 °C 30.00in /  1015.8hPa South 3.5mph /  5.6km/h   93% 0.00in /  0cm
18:09 52.3 °F /  11.3 °C 50.1 °F /  10.1 °C 30.00in /  1015.8hPa Calm     92% 0.00in /  0cm
18:14 52.2 °F /  11.2 °C 49.9 °F /  9.9 °C 30.00in /  1015.8hPa Calm     92% 0.00in /  0cm
18:19 52.2 °F /  11.2 °C 50.2 °F /  10.1 °C 30.00in /  1015.8hPa Calm     93% 0.00in /  0cm
18:24 52.2 °F /  11.2 °C 50.2 °F /  10.1 °C 30.00in /  1015.8hPa SSE 1.2mph /  1.9km/h   93% 0.00in /  0cm
18:29 52.2 °F /  11.2 °C 50.5 °F /  10.3 °C 30.00in /  1015.8hPa Calm   1.2mph /  1.9km/h 94% 0.00in /  0cm
18:34 52.0 °F /  11.1 °C 50.3 °F /  10.2 °C 30.01in /  1016.1hPa WNW 1.2mph /  1.9km/h   94% 0.00in /  0cm
18:39 51.8 °F /  11 °C 50.1 °F /  10.1 °C 30.01in /  1016.1hPa Calm     94% 0.00in /  0cm
18:44 51.8 °F /  11 °C 50.4 °F /  10.2 °C 30.01in /  1016.1hPa WSW 1.2mph /  1.9km/h   95% 0.00in /  0cm
18:49 51.6 °F /  10.9 °C 50.2 °F /  10.1 °C 30.02in /  1016.5hPa SW 6.3mph /  10.1km/h 6.3mph /  10.1km/h 95% 0.00in /  0cm
18:54 51.4 °F /  10.8 °C 50.1 °F /  10.1 °C 30.02in /  1016.5hPa West 3.5mph /  5.6km/h 3.5mph /  5.6km/h 95% 0.00in /  0cm
18:59 51.6 °F /  10.9 °C 49.9 °F /  9.9 °C 30.02in /  1016.5hPa ESE 2.3mph /  3.7km/h 2.3mph /  3.7km/h 94% 0.00in /  0cm
19:04 51.6 °F /  10.9 °C 50.2 °F /  10.1 °C 30.02in /  1016.5hPa Calm     95% 0.00in /  0cm
19:09 51.4 °F /  10.8 °C 50.1 °F /  10.1 °C 30.02in /  1016.5hPa WNW 0.6mph /  1km/h 0.6mph /  1km/h 95% 0.00in /  0cm
19:14 51.4 °F /  10.8 °C 50.1 °F /  10.1 °C 30.02in /  1016.5hPa SW 3.5mph /  5.6km/h   95% 0.00in /  0cm
19:19 51.4 °F /  10.8 °C 50.1 °F /  10.1 °C 30.02in /  1016.5hPa WNW 2.3mph /  3.7km/h 2.3mph /  3.7km/h 95% 0.00in /  0cm
19:24 51.4 °F /  10.8 °C 49.8 °F /  9.9 °C 30.02in /  1016.5hPa SW 3.2mph /  5.1km/h 3.2mph /  5.1km/h 94% 0.00in /  0cm
19:29 51.6 °F /  10.9 °C 49.9 °F /  9.9 °C 30.02in /  1016.5hPa West 0.6mph /  1km/h 0.6mph /  1km/h 94% 0.00in /  0cm
19:34 51.6 °F /  10.9 °C 49.7 °F /  9.8 °C 30.02in /  1016.5hPa WSW 4.6mph /  7.4km/h 4.6mph /  7.4km/h 93% 0.00in /  0cm
19:39 51.6 °F /  10.9 °C 49.9 °F /  9.9 °C 30.02in /  1016.5hPa Calm     94% 0.00in /  0cm
19:44 51.4 °F /  10.8 °C 49.8 °F /  9.9 °C 30.03in /  1016.8hPa WNW 1.2mph /  1.9km/h   94% 0.00in /  0cm
19:49 51.1 °F /  10.6 °C 49.1 °F /  9.5 °C 30.02in /  1016.5hPa Calm   0.1mph /  0.2km/h 93% 0.00in /  0cm
19:54 50.9 °F /  10.5 °C 49.2 °F /  9.6 °C 30.03in /  1016.8hPa Calm     94% 0.00in /  0cm
19:59 50.9 °F /  10.5 °C 49.2 °F /  9.6 °C 30.03in /  1016.8hPa Calm     94% 0.00in /  0cm
20:04 50.9 °F /  10.5 °C 49.2 °F /  9.6 °C 30.03in /  1016.8hPa Calm     94% 0.00in /  0cm
20:09 51.3 °F /  10.7 °C 49.6 °F /  9.8 °C 30.03in /  1016.8hPa SSW 2.3mph /  3.7km/h   94% 0.00in /  0cm
20:14 51.3 °F /  10.7 °C 49.9 °F /  9.9 °C 30.03in /  1016.8hPa Calm   0.1mph /  0.2km/h 95% 0.00in /  0cm
20:19 51.3 °F /  10.7 °C 49.9 °F /  9.9 °C 30.03in /  1016.8hPa West 4.6mph /  7.4km/h 4.6mph /  7.4km/h 95% 0.00in /  0cm
20:24 51.3 °F /  10.7 °C 49.9 °F /  9.9 °C 30.03in /  1016.8hPa West 5.8mph /  9.3km/h 5.8mph /  9.3km/h 95% 0.00in /  0cm
20:29 51.3 °F /  10.7 °C 49.9 °F /  9.9 °C 30.02in /  1016.5hPa West 2.5mph /  4km/h 2.5mph /  4km/h 95% 0.00in /  0cm
20:34 51.3 °F /  10.7 °C 49.6 °F /  9.8 °C 30.03in /  1016.8hPa SSW 3.5mph /  5.6km/h 3.5mph /  5.6km/h 94% 0.00in /  0cm
20:39 51.3 °F /  10.7 °C 50.2 °F /  10.1 °C 30.03in /  1016.8hPa West 6.9mph /  11.1km/h 6.9mph /  11.1km/h 96% 0.00in /  0cm
20:44 51.1 °F /  10.6 °C 49.7 °F /  9.8 °C 30.03in /  1016.8hPa South 0.8mph /  1.3km/h 1.0mph /  1.6km/h 95% 0.00in /  0cm
20:49 50.9 °F /  10.5 °C 49.8 °F /  9.9 °C 30.03in /  1016.8hPa WNW 3.5mph /  5.6km/h 3.5mph /  5.6km/h 96% 0.00in /  0cm
20:54 50.9 °F /  10.5 °C 49.8 °F /  9.9 °C 30.03in /  1016.8hPa WNW 0.8mph /  1.3km/h 2.2mph /  3.5km/h 96% 0.00in /  0cm
20:59 50.9 °F /  10.5 °C 49.8 °F /  9.9 °C 30.03in /  1016.8hPa NNW 1.2mph /  1.9km/h   96% 0.00in /  0cm
21:04 50.9 °F /  10.5 °C 49.8 °F /  9.9 °C 30.03in /  1016.8hPa SSE 3.5mph /  5.6km/h 3.5mph /  5.6km/h 96% 0.00in /  0cm
21:09 51.1 °F /  10.6 °C 50.0 °F /  10 °C 30.03in /  1016.8hPa North 0.8mph /  1.3km/h 0.8mph /  1.3km/h 96% 0.00in /  0cm
21:14 51.1 °F /  10.6 °C 50.0 °F /  10 °C 30.03in /  1016.8hPa WSW 4.6mph /  7.4km/h 4.6mph /  7.4km/h 96% 0.00in /  0cm
21:19 51.3 °F /  10.7 °C 50.2 °F /  10.1 °C 30.03in /  1016.8hPa WNW 3.5mph /  5.6km/h 3.5mph /  5.6km/h 96% 0.00in /  0cm
21:24 51.3 °F /  10.7 °C 50.2 °F /  10.1 °C 30.03in /  1016.8hPa Calm     96% 0.00in /  0cm
21:29 51.3 °F /  10.7 °C 50.2 °F /  10.1 °C 30.03in /  1016.8hPa SSE 0.6mph /  1km/h 1.9mph /  3.1km/h 96% 0.00in /  0cm
21:34 51.3 °F /  10.7 °C 49.9 °F /  9.9 °C 30.03in /  1016.8hPa South 1.2mph /  1.9km/h 1.3mph /  2.1km/h 95% 0.00in /  0cm
21:39 51.4 °F /  10.8 °C 50.1 °F /  10.1 °C 30.03in /  1016.8hPa Calm     95% 0.00in /  0cm
21:44 51.3 °F /  10.7 °C 49.9 °F /  9.9 °C 30.03in /  1016.8hPa NNE 2.3mph /  3.7km/h   95% 0.00in /  0cm
21:49 51.3 °F /  10.7 °C 49.9 °F /  9.9 °C 30.03in /  1016.8hPa WSW 1.2mph /  1.9km/h 1.2mph /  1.9km/h 95% 0.00in /  0cm
21:54 51.3 °F /  10.7 °C 49.9 °F /  9.9 °C 30.03in /  1016.8hPa SW 1.2mph /  1.9km/h 1.4mph /  2.3km/h 95% 0.00in /  0cm
21:59 51.3 °F /  10.7 °C 49.9 °F /  9.9 °C 30.03in /  1016.8hPa WSW 4.2mph /  6.8km/h 4.2mph /  6.8km/h 95% 0.00in /  0cm
22:04 51.3 °F /  10.7 °C 49.9 °F /  9.9 °C 30.03in /  1016.8hPa West 5.8mph /  9.3km/h 5.8mph /  9.3km/h 95% 0.00in /  0cm
22:09 51.4 °F /  10.8 °C 49.8 °F /  9.9 °C 30.03in /  1016.8hPa North 1.9mph /  3.1km/h 1.9mph /  3.1km/h 94% 0.01in /  0.25cm
22:14 51.6 °F /  10.9 °C 49.9 °F /  9.9 °C 30.03in /  1016.8hPa Calm   0.5mph /  0.8km/h 94% 0.01in /  0.25cm
22:19 51.4 °F /  10.8 °C 49.8 °F /  9.9 °C 30.03in /  1016.8hPa West 5.8mph /  9.3km/h   94% 0.01in /  0.25cm
22:24 51.1 °F /  10.6 °C 49.4 °F /  9.7 °C 30.03in /  1016.8hPa SW 4.6mph /  7.4km/h 4.6mph /  7.4km/h 94% 0.01in /  0.25cm
22:29 51.1 °F /  10.6 °C 49.4 °F /  9.7 °C 30.03in /  1016.8hPa SW 8.1mph /  13km/h 8.1mph /  13km/h 94% 0.01in /  0.25cm
22:34 50.9 °F /  10.5 °C 48.9 °F /  9.4 °C 30.03in /  1016.8hPa NW 5.8mph /  9.3km/h 5.8mph /  9.3km/h 93% 0.01in /  0.25cm
22:39 50.9 °F /  10.5 °C 49.2 °F /  9.6 °C 30.03in /  1016.8hPa ESE 2.3mph /  3.7km/h 2.3mph /  3.7km/h 94% 0.01in /  0.25cm
22:44 50.9 °F /  10.5 °C 49.2 °F /  9.6 °C 30.03in /  1016.8hPa WNW 2.3mph /  3.7km/h 2.3mph /  3.7km/h 94% 0.01in /  0.25cm
22:49 51.3 °F /  10.7 °C 49.6 °F /  9.8 °C 30.03in /  1016.8hPa NNW 1.3mph /  2.1km/h 1.3mph /  2.1km/h 94% 0.01in /  0.25cm
22:54 51.3 °F /  10.7 °C 49.6 °F /  9.8 °C 30.04in /  1017.2hPa NNW 2.3mph /  3.7km/h 2.3mph /  3.7km/h 94% 0.01in /  0.25cm
22:59 51.4 °F /  10.8 °C 49.2 °F /  9.6 °C 30.03in /  1016.8hPa WNW 3.5mph /  5.6km/h 3.5mph /  5.6km/h 92% 0.01in /  0.25cm
23:04 51.4 °F /  10.8 °C 49.5 °F /  9.7 °C 30.03in /  1016.8hPa West 3.5mph /  5.6km/h 3.5mph /  5.6km/h 93% 0.01in /  0.25cm
23:09 51.3 °F /  10.7 °C 49.3 °F /  9.6 °C 30.03in /  1016.8hPa Calm   0.1mph /  0.2km/h 93% 0.00in /  0cm
23:14 51.1 °F /  10.6 °C 49.1 °F /  9.5 °C 30.03in /  1016.8hPa SSE 3.5mph /  5.6km/h 3.5mph /  5.6km/h 93% 0.00in /  0cm
23:19 50.9 °F /  10.5 °C 48.9 °F /  9.4 °C 30.03in /  1016.8hPa WNW 3.7mph /  6km/h 3.7mph /  6km/h 93% 0.00in /  0cm
23:24 50.9 °F /  10.5 °C 48.9 °F /  9.4 °C 30.04in /  1017.2hPa WSW 3.5mph /  5.6km/h 3.5mph /  5.6km/h 93% 0.00in /  0cm
23:29 50.9 °F /  10.5 °C 48.9 °F /  9.4 °C 30.03in /  1016.8hPa West 5.8mph /  9.3km/h 5.8mph /  9.3km/h 93% 0.00in /  0cm
23:34 50.7 °F /  10.4 °C 48.8 °F /  9.3 °C 30.03in /  1016.8hPa WSW 1.2mph /  1.9km/h 1.2mph /  1.9km/h 93% 0.00in /  0cm
23:39 50.7 °F /  10.4 °C 48.5 °F /  9.2 °C 30.03in /  1016.8hPa South 4.6mph /  7.4km/h 4.6mph /  7.4km/h 92% 0.00in /  0cm
23:44 50.4 °F /  10.2 °C 48.4 °F /  9.1 °C 30.02in /  1016.5hPa WNW 4.6mph /  7.4km/h 4.6mph /  7.4km/h 93% 0.00in /  0cm
Wether-Above
Compliments of Weather Underground
Welcome to Weather-Above
Cheddleton weather station supplies various organisations with data from our weather station one of them is the weather Underground this information displayed here is coming from the weather Underground server 

If any information is used please acknowledge the source to www weather-above.com or weather Underground